WXM80 ListenWXM80 Stop

You find our weather info also at:

UK Metoffice

WeatherCloud

Weather Underground

Northeastern Weather Network

AWEKAS

Citizen Weather Observer Program (CWOP)

HAMweather, WeatherForYou, PWS Weather


Weather Underground History page Text

Daily Summary for June 24, 2017 Units:  English    Metric   Both
« Previous Day
Next Day »
Daily Weekly Monthly Yearly Custom
  High: Low: Average:
Temperature: 88.6 °F 71.7 °F 78.6 °F
Dew Point: 77.5 °F 59.2 °F 68 °F
Humidity: 97 % 41 % 73 %
Wind Speed: 8.8 mph 0.0 mph 2.2 mph
Wind Gust: 16.0 mph - -
Wind:- - WSW
Pressure: 29.84 in 29.52 in -
Precipitation: 1.17 in    
Historical Graphs
 
 
Tabular Data for June 24, 2017
Time Temperature Dew Point Pressure Wind Wind Speed Wind Gust Humidity Rainfall Rate (Hourly)
00:02 77.7 °F 72.8 °F 29.57 in SSW 4.0 mph 7.0 mph 85 % 0.00 in
00:07 77.7 °F 72.8 °F 29.58 in SW 0.7 mph 3.5 mph 85 % 0.00 in
00:12 77.6 °F 72.7 °F 29.57 in SW 1.4 mph 3.5 mph 85 % 0.00 in
00:17 77.6 °F 72.7 °F 29.57 in WSW 2.2 mph 4.6 mph 85 % 0.00 in
00:22 77.5 °F 73.0 °F 29.57 in SW 1.6 mph 3.5 mph 86 % 0.00 in
00:27 77.3 °F 72.8 °F 29.58 in West 1.8 mph 3.5 mph 86 % 0.00 in
00:32 77.2 °F 72.7 °F 29.57 in SSE 1.2 mph 3.5 mph 86 % 0.00 in
00:37 77.0 °F 72.5 °F 29.57 in SSW 1.5 mph 5.0 mph 86 % 0.00 in
00:42 76.9 °F 72.4 °F 29.57 in SSW 2.6 mph 4.0 mph 86 % 0.00 in
00:47 76.7 °F 72.5 °F 29.57 in SW 0.5 mph 2.3 mph 87 % 0.00 in
00:52 76.6 °F 72.4 °F 29.57 in SW 2.9 mph 9.2 mph 87 % 0.00 in
00:57 76.4 °F 72.2 °F 29.57 in West 1.6 mph 3.5 mph 87 % 0.00 in
01:02 76.3 °F 72.5 °F 29.57 in SSW 1.5 mph 4.0 mph 88 % 0.00 in
01:07 76.3 °F 72.5 °F 29.57 in SSW 2.1 mph 6.9 mph 88 % 0.00 in
01:12 76.2 °F 72.4 °F 29.57 in SSW 0.8 mph 3.0 mph 88 % 0.00 in
01:17 76.1 °F 72.3 °F 29.57 in NW 0.9 mph 4.6 mph 88 % 0.00 in
01:22 76.1 °F 72.3 °F 29.57 in SW 0.2 mph 1.2 mph 88 % 0.00 in
01:27 76.0 °F 72.2 °F 29.57 in SSE 0.2 mph 1.2 mph 88 % 0.00 in
01:32 76.0 °F 72.2 °F 29.56 in SSW 1.1 mph 2.0 mph 88 % 0.00 in
01:37 76.0 °F 72.2 °F 29.56 in SW 2.6 mph 4.6 mph 88 % 0.00 in
01:43 75.9 °F 72.1 °F 29.56 in SSW 2.4 mph 5.0 mph 88 % 0.00 in
01:48 75.9 °F 72.4 °F 29.56 in SW 2.0 mph 5.8 mph 89 % 0.00 in
01:53 75.9 °F 72.4 °F 29.56 in SW 0.9 mph 3.5 mph 89 % 0.00 in
01:58 75.8 °F 72.3 °F 29.56 in South 3.8 mph 4.6 mph 89 % 0.00 in
02:03 75.8 °F 72.3 °F 29.56 in SW 2.8 mph 6.9 mph 89 % 0.00 in
02:08 75.7 °F 72.6 °F 29.56 in SSW 0.8 mph 3.5 mph 90 % 0.00 in
02:13 75.6 °F 72.5 °F 29.57 in West 1.3 mph 3.5 mph 90 % 0.00 in
02:18 75.5 °F 72.4 °F 29.57 in SW 3.4 mph 9.2 mph 90 % 0.00 in
02:23 75.3 °F 72.2 °F 29.57 in SSW 3.7 mph 8.1 mph 90 % 0.00 in
02:28 75.3 °F 72.5 °F 29.56 in SW 3.2 mph 12.7 mph 91 % 0.00 in
02:33 75.1 °F 72.3 °F 29.57 in SW 3.5 mph 8.0 mph 91 % 0.00 in
02:38 75.1 °F 72.3 °F 29.57 in SW 4.7 mph 9.2 mph 91 % 0.00 in
02:43 74.9 °F 72.1 °F 29.56 in WSW 3.5 mph 9.2 mph 91 % 0.00 in
02:48 74.8 °F 72.0 °F 29.56 in WSW 1.4 mph 6.0 mph 91 % 0.00 in
02:53 74.8 °F 72.0 °F 29.56 in West 3.4 mph 10.4 mph 91 % 0.00 in
02:58 74.8 °F 72.0 °F 29.56 in SW 5.5 mph 9.2 mph 91 % 0.00 in
03:03 74.8 °F 72.0 °F 29.56 in WSW 2.3 mph 3.5 mph 91 % 0.00 in
03:08 74.8 °F 72.0 °F 29.56 in SW 2.6 mph 6.9 mph 91 % 0.00 in
03:13 74.8 °F 72.0 °F 29.57 in WSW 3.0 mph 9.0 mph 91 % 0.00 in
03:18 74.9 °F 72.1 °F 29.56 in SW 1.6 mph 4.6 mph 91 % 0.00 in
03:23 74.9 °F 72.1 °F 29.56 in SW 3.4 mph 8.1 mph 91 % 0.00 in
03:28 75.0 °F 72.2 °F 29.56 in WSW 2.8 mph 7.0 mph 91 % 0.00 in
03:33 75.0 °F 72.2 °F 29.56 in SSE 6.4 mph 9.2 mph 91 % 0.00 in
03:38 75.1 °F 72.0 °F 29.56 in West 4.7 mph 8.1 mph 90 % 0.00 in
03:43 75.0 °F 71.9 °F 29.56 in WSW 4.7 mph 8.1 mph 90 % 0.00 in
03:48 75.1 °F 72.0 °F 29.56 in WSW 2.7 mph 7.0 mph 90 % 0.00 in
03:53 75.1 °F 71.6 °F 29.56 in WSW 3.9 mph 7.0 mph 89 % 0.00 in
03:58 75.1 °F 71.6 °F 29.55 in SW 1.9 mph 4.0 mph 89 % 0.00 in
04:03 75.1 °F 71.6 °F 29.55 in West 1.7 mph 8.1 mph 89 % 0.00 in
04:08 75.0 °F 71.5 °F 29.56 in SW 1.6 mph 3.5 mph 89 % 0.00 in
04:13 75.0 °F 71.5 °F 29.55 in WSW 0.2 mph 2.3 mph 89 % 0.00 in
04:18 75.0 °F 71.2 °F 29.55 in WSW 4.0 mph 5.0 mph 88 % 0.00 in
04:24 74.9 °F 71.1 °F 29.54 in WSW 0.2 mph 1.2 mph 88 % 0.00 in
04:28 74.9 °F 71.1 °F 29.54 in WSW 0.1 mph 3.0 mph 88 % 0.00 in
04:33 74.9 °F 71.1 °F 29.54 in Calm   1.2 mph 88 % 0.00 in
04:38 74.8 °F 71.0 °F 29.54 in Calm   1.2 mph 88 % 0.00 in
04:43 74.8 °F 71.0 °F 29.54 in Calm     88 % 0.00 in
04:49 74.8 °F 71.0 °F 29.54 in Calm   1.2 mph 88 % 0.00 in
04:54 74.8 °F 71.3 °F 29.54 in Calm   3.5 mph 89 % 0.00 in
04:59 74.8 °F 71.3 °F 29.53 in Calm     89 % 0.00 in
05:04 74.8 °F 71.3 °F 29.54 in Calm   3.5 mph 89 % 0.00 in
05:09 74.7 °F 71.6 °F 29.54 in Calm   1.2 mph 90 % 0.00 in
05:14 74.7 °F 71.6 °F 29.55 in Calm     90 % 0.00 in
05:19 74.8 °F 71.7 °F 29.55 in WSW 0.6 mph 3.5 mph 90 % 0.00 in
05:24 74.7 °F 71.6 °F 29.56 in West 2.1 mph 3.5 mph 90 % 0.00 in
05:29 74.7 °F 71.6 °F 29.56 in WSW 0.4 mph 2.3 mph 90 % 0.00 in
05:34 74.7 °F 71.9 °F 29.56 in SSE 0.1 mph 1.2 mph 91 % 0.00 in
05:39 74.6 °F 71.8 °F 29.56 in SW 0.4 mph 3.5 mph 91 % 0.00 in
05:44 74.6 °F 71.8 °F 29.55 in Calm     91 % 0.00 in
05:49 74.6 °F 71.8 °F 29.55 in Calm     91 % 0.00 in
05:54 74.5 °F 71.7 °F 29.55 in Calm     91 % 0.00 in
05:59 74.5 °F 71.7 °F 29.54 in Calm   1.2 mph 91 % 0.00 in
06:04 74.4 °F 71.6 °F 29.55 in Calm     91 % 0.00 in
06:09 74.4 °F 71.6 °F 29.55 in Calm     91 % 0.00 in
06:14 74.4 °F 71.6 °F 29.54 in Calm     91 % 0.00 in
06:19 74.4 °F 71.6 °F 29.54 in SE 2.0 mph 3.5 mph 91 % 0.00 in
06:24 74.2 °F 71.4 °F 29.54 in SE 1.2 mph 5.8 mph 91 % 0.01 in
06:29 74.2 °F 71.4 °F 29.53 in Calm   1.0 mph 91 % 0.01 in
06:34 74.1 °F 71.3 °F 29.54 in Calm     91 % 0.02 in
06:39 74.0 °F 71.2 °F 29.55 in East 0.1 mph 1.2 mph 91 % 0.04 in
06:45 74.0 °F 71.2 °F 29.54 in Calm   1.2 mph 91 % 0.06 in
06:50 73.8 °F 71.0 °F 29.54 in Calm   1.2 mph 91 % 0.10 in
06:55 73.7 °F 71.2 °F 29.53 in Calm     92 % 0.13 in
07:00 73.6 °F 71.1 °F 29.54 in Calm     92 % 0.16 in
07:05 73.5 °F 71.0 °F 29.53 in Calm     92 % 0.19 in
07:10 73.4 °F 70.9 °F 29.52 in Calm     92 % 0.23 in
07:15 73.2 °F 71.1 °F 29.54 in SE 0.4 mph 3.5 mph 93 % 0.26 in
07:20 73.0 °F 70.9 °F 29.55 in Calm   1.2 mph 93 % 0.30 in
07:25 72.9 °F 70.8 °F 29.54 in SE 0.1 mph 1.2 mph 93 % 0.32 in
07:30 72.8 °F 70.7 °F 29.54 in Calm     93 % 0.37 in
07:35 72.7 °F 70.6 °F 29.53 in Calm     93 % 0.39 in
07:40 72.6 °F 70.5 °F 29.53 in Calm     93 % 0.42 in
07:41 72.6 °F 70.5 °F 29.52 in Calm     93 % 0.41 in
07:46 72.6 °F 70.8 °F 29.53 in Calm     94 % 0.43 in
07:51 72.5 °F 70.7 °F 29.53 in Calm   1.2 mph 94 % 0.42 in
07:56 72.4 °F 70.6 °F 29.53 in NW 0.8 mph 2.3 mph 94 % 0.43 in
08:01 72.3 °F 70.5 °F 29.53 in NNW 0.7 mph 2.3 mph 94 % 0.43 in
08:06 72.3 °F 70.5 °F 29.54 in WSW 0.6 mph 2.3 mph 94 % 0.44 in
08:11 72.2 °F 70.4 °F 29.55 in Calm   1.2 mph 94 % 0.45 in
08:16 72.1 °F 70.3 °F 29.54 in Calm   1.0 mph 94 % 0.45 in
08:21 72.1 °F 70.3 °F 29.55 in WSW 1.8 mph 3.5 mph 94 % 0.45 in
08:26 72.0 °F 70.2 °F 29.55 in WNW 0.6 mph 5.0 mph 94 % 0.45 in
08:31 72.0 °F 70.2 °F 29.55 in NW 0.5 mph 3.5 mph 94 % 0.43 in
08:36 71.9 °F 70.4 °F 29.54 in NW 1.1 mph 3.5 mph 95 % 0.42 in
08:41 71.9 °F 70.4 °F 29.54 in NW 0.7 mph 2.3 mph 95 % 0.42 in
08:46 71.8 °F 70.3 °F 29.54 in NW 0.2 mph 2.3 mph 95 % 0.41 in
08:51 71.7 °F 70.2 °F 29.54 in NW 0.1 mph 1.0 mph 95 % 0.41 in
08:56 71.7 °F 70.2 °F 29.55 in NW 1.0 mph 3.5 mph 95 % 0.39 in
09:01 71.8 °F 70.3 °F 29.55 in WNW 0.5 mph 2.3 mph 95 % 0.39 in
09:06 71.9 °F 70.4 °F 29.56 in WSW 0.2 mph 1.2 mph 95 % 0.37 in
09:11 71.9 °F 70.4 °F 29.56 in Calm   3.5 mph 95 % 0.35 in
09:16 72.0 °F 70.5 °F 29.55 in Calm     95 % 0.34 in
09:21 72.0 °F 70.5 °F 29.55 in Calm     95 % 0.32 in
09:26 72.1 °F 70.9 °F 29.55 in SW 0.6 mph 3.0 mph 96 % 0.30 in
09:31 72.2 °F 71.0 °F 29.55 in West 0.9 mph 2.0 mph 96 % 0.28 in
09:36 72.3 °F 71.1 °F 29.55 in West 1.5 mph 3.5 mph 96 % 0.26 in
09:41 72.5 °F 71.3 °F 29.56 in WNW 1.2 mph 2.3 mph 96 % 0.25 in
09:47 72.8 °F 71.6 °F 29.57 in SW 2.2 mph 5.8 mph 96 % 0.23 in
09:52 73.2 °F 72.3 °F 29.57 in WSW 2.4 mph 6.0 mph 97 % 0.21 in
09:57 73.7 °F 72.8 °F 29.57 in WSW 3.0 mph 5.8 mph 97 % 0.20 in
10:02 74.0 °F 73.1 °F 29.57 in WNW 3.9 mph 8.1 mph 97 % 0.17 in
10:07 74.2 °F 73.0 °F 29.57 in WSW 1.6 mph 8.1 mph 96 % 0.15 in
10:12 74.6 °F 73.7 °F 29.57 in West 1.1 mph 3.5 mph 97 % 0.12 in
10:17 75.4 °F 74.5 °F 29.58 in WNW 1.5 mph 3.5 mph 97 % 0.11 in
10:22 75.9 °F 75.0 °F 29.58 in WSW 2.8 mph 4.6 mph 97 % 0.09 in
10:27 76.2 °F 75.0 °F 29.58 in SW 2.6 mph 5.8 mph 96 % 0.07 in
10:32 76.5 °F 75.0 °F 29.58 in West 4.1 mph 5.8 mph 95 % 0.06 in
10:37 77.0 °F 75.5 °F 29.58 in SW 5.3 mph 8.1 mph 95 % 0.04 in
10:42 77.5 °F 75.6 °F 29.58 in WNW 1.0 mph 5.8 mph 94 % 0.03 in
10:47 78.1 °F 75.9 °F 29.58 in West 1.3 mph 3.5 mph 93 % 0.02 in
10:52 78.8 °F 76.6 °F 29.58 in SW 4.8 mph 8.1 mph 93 % 0.01 in
10:57 79.5 °F 77.0 °F 29.58 in SW 5.3 mph 6.9 mph 92 % 0.00 in
11:02 80.1 °F 76.9 °F 29.59 in SW 3.1 mph 6.9 mph 90 % 0.00 in
11:07 80.5 °F 76.3 °F 29.59 in WNW 5.6 mph 9.2 mph 87 % 0.00 in
11:12 81.1 °F 77.5 °F 29.59 in NNE 1.2 mph 4.6 mph 89 % 0.00 in
11:17 81.5 °F 76.9 °F 29.59 in West 3.9 mph 6.9 mph 86 % 0.00 in
11:22 81.9 °F 77.3 °F 29.59 in WSW 5.4 mph 10.4 mph 86 % 0.00 in
11:27 82.3 °F 77.3 °F 29.59 in SW 1.2 mph 4.6 mph 85 % 0.00 in
11:32 82.8 °F 77.5 °F 29.60 in WSW 4.4 mph 4.6 mph 84 % 0.00 in
11:38 83.1 °F 77.0 °F 29.60 in West 4.7 mph 6.9 mph 82 % 0.00 in
11:43 83.4 °F 76.6 °F 29.61 in NW 3.1 mph 6.9 mph 80 % 0.00 in
11:48 83.6 °F 76.8 °F 29.61 in WNW 6.5 mph 7.0 mph 80 % 0.00 in
11:53 84.0 °F 77.2 °F 29.60 in SW 7.2 mph 12.0 mph 80 % 0.00 in
11:58 84.2 °F 76.2 °F 29.61 in WNW 2.0 mph 4.6 mph 77 % 0.00 in
12:03 84.5 °F 76.1 °F 29.61 in SW 5.1 mph 6.9 mph 76 % 0.00 in
12:08 84.7 °F 76.7 °F 29.61 in WNW 5.0 mph 8.1 mph 77 % 0.01 in
12:13 85.0 °F 76.2 °F 29.62 in WNW 3.5 mph 4.6 mph 75 % 0.01 in
12:18 85.3 °F 76.9 °F 29.62 in SW 3.2 mph 9.2 mph 76 % 0.01 in
12:23 85.5 °F 73.7 °F 29.62 in West 4.4 mph 9.2 mph 68 % 0.01 in
12:28 85.7 °F 74.8 °F 29.62 in North 2.4 mph 5.8 mph 70 % 0.01 in
12:33 85.9 °F 74.5 °F 29.62 in WNW 5.4 mph 9.0 mph 69 % 0.01 in
12:38 86.0 °F 71.9 °F 29.63 in NW 5.5 mph 9.2 mph 63 % 0.01 in
12:43 86.1 °F 70.6 °F 29.63 in WSW 4.2 mph 7.0 mph 60 % 0.01 in
12:48 86.2 °F 69.7 °F 29.63 in WNW 5.4 mph 11.5 mph 58 % 0.01 in
12:53 86.5 °F 68.9 °F 29.63 in East 2.8 mph 8.1 mph 56 % 0.01 in
12:59 86.7 °F 70.2 °F 29.64 in WSW 6.4 mph 10.4 mph 58 % 0.01 in
13:04 86.9 °F 69.8 °F 29.64 in West 5.7 mph 13.8 mph 57 % 0.01 in
13:09 87.1 °F 70.5 °F 29.64 in WSW 3.0 mph 8.0 mph 58 % 0.00 in
13:14 87.2 °F 67.4 °F 29.64 in SW 8.8 mph 10.4 mph 52 % 0.00 in
13:19 87.3 °F 67.0 °F 29.65 in WNW 8.3 mph 15.0 mph 51 % 0.00 in
13:24 87.3 °F 69.2 °F 29.65 in WNW 3.8 mph 9.2 mph 55 % 0.00 in
13:29 87.4 °F 69.3 °F 29.65 in WSW 3.7 mph 10.0 mph 55 % 0.00 in
13:34 87.4 °F 66.5 °F 29.65 in North 6.9 mph 11.5 mph 50 % 0.00 in
13:39 87.6 °F 67.2 °F 29.65 in NE 4.4 mph 15.0 mph 51 % 0.00 in
13:44 87.7 °F 66.8 °F 29.66 in WSW 2.1 mph 9.2 mph 50 % 0.00 in
13:49 87.9 °F 68.1 °F 29.66 in WSW 5.4 mph 11.0 mph 52 % 0.00 in
13:54 88.0 °F 65.2 °F 29.66 in WSW 7.9 mph 11.5 mph 47 % 0.00 in
13:59 88.0 °F 65.8 °F 29.66 in West 3.5 mph 11.5 mph 48 % 0.00 in
14:04 88.0 °F 66.4 °F 29.66 in NW 4.8 mph 9.2 mph 49 % 0.00 in
14:09 88.2 °F 66.6 °F 29.66 in WNW 5.3 mph 8.1 mph 49 % 0.00 in
14:14 88.4 °F 67.4 °F 29.67 in WSW 4.8 mph 7.0 mph 50 % 0.00 in
14:17 88.5 °F 67.5 °F 29.67 in NW 4.3 mph 12.0 mph 50 % 0.00 in
14:20 88.6 °F 67.0 °F 29.67 in WSW 4.1 mph 8.1 mph 49 % 0.00 in
14:25 88.6 °F 64.5 °F 29.67 in SW 5.5 mph 11.0 mph 45 % 0.00 in
14:30 88.6 °F 65.2 °F 29.67 in WSW 5.3 mph 9.2 mph 46 % 0.00 in
14:31 88.6 °F 65.2 °F 29.67 in SW 5.3 mph 9.2 mph 46 % 0.00 in
14:36 88.6 °F 65.8 °F 29.67 in NW 5.9 mph 13.8 mph 47 % 0.00 in
14:41 88.5 °F 65.1 °F 29.67 in West 1.8 mph 3.5 mph 46 % 0.00 in
14:46 88.4 °F 64.4 °F 29.67 in West 7.4 mph 15.0 mph 45 % 0.00 in
14:51 88.4 °F 64.4 °F 29.67 in West 3.5 mph 7.0 mph 45 % 0.00 in
14:56 88.4 °F 65.0 °F 29.68 in WNW 3.2 mph 6.9 mph 46 % 0.00 in
15:01 88.5 °F 65.7 °F 29.67 in WNW 3.7 mph 10.0 mph 47 % 0.00 in
15:06 88.5 °F 63.8 °F 29.68 in WNW 5.1 mph 10.0 mph 44 % 0.00 in
15:11 88.5 °F 63.1 °F 29.68 in West 6.8 mph 12.7 mph 43 % 0.00 in
15:16 88.5 °F 64.4 °F 29.68 in SW 6.3 mph 12.7 mph 45 % 0.00 in
15:21 88.2 °F 64.2 °F 29.69 in NNW 6.6 mph 11.5 mph 45 % 0.00 in
15:26 88.0 °F 63.4 °F 29.69 in WSW 5.1 mph 15.0 mph 44 % 0.00 in
15:31 87.8 °F 62.5 °F 29.69 in SW 4.5 mph 16.0 mph 43 % 0.00 in
15:36 87.7 °F 63.1 °F 29.69 in NNE 5.6 mph 8.1 mph 44 % 0.00 in
15:39 87.7 °F 61.8 °F 29.69 in SW 7.5 mph 11.5 mph 42 % 0.00 in
15:44 87.8 °F 63.2 °F 29.69 in SW 4.5 mph 8.0 mph 44 % 0.00 in
15:49 87.9 °F 63.9 °F 29.69 in West 4.8 mph 12.0 mph 45 % 0.00 in
15:54 88.0 °F 64.6 °F 29.69 in WNW 2.0 mph 8.1 mph 46 % 0.00 in
15:59 88.0 °F 62.0 °F 29.70 in West 4.6 mph 9.2 mph 42 % 0.00 in
16:00 88.0 °F 62.0 °F 29.70 in West 6.7 mph 9.2 mph 42 % 0.00 in
16:05 87.9 °F 62.6 °F 29.70 in West 4.9 mph 12.0 mph 43 % 0.00 in
16:10 87.9 °F 61.9 °F 29.70 in WNW 6.7 mph 12.7 mph 42 % 0.00 in
16:15 87.8 °F 62.5 °F 29.70 in West 8.4 mph 13.8 mph 43 % 0.00 in
16:20 87.6 °F 61.7 °F 29.71 in North 2.8 mph 6.9 mph 42 % 0.00 in
16:26 87.6 °F 62.3 °F 29.71 in SW 3.0 mph 6.0 mph 43 % 0.00 in
16:31 87.4 °F 60.8 °F 29.72 in West 3.0 mph 12.0 mph 41 % 0.00 in
16:36 87.1 °F 61.9 °F 29.72 in West 6.0 mph 9.0 mph 43 % 0.00 in
16:41 86.8 °F 62.3 °F 29.72 in WNW 2.0 mph 6.0 mph 44 % 0.00 in
16:46 86.5 °F 62.7 °F 29.72 in WNW 3.0 mph 9.0 mph 45 % 0.00 in
16:51 86.0 °F 61.5 °F 29.72 in WNW 3.0 mph 12.0 mph 44 % 0.00 in
16:56 85.6 °F 60.5 °F 29.72 in WNW 5.0 mph 15.0 mph 43 % 0.00 in
17:01 85.3 °F 62.2 °F 29.73 in SW 2.6 mph 4.6 mph 46 % 0.00 in
17:06 85.1 °F 61.4 °F 29.73 in SW 5.7 mph 10.4 mph 45 % 0.00 in
17:11 84.9 °F 61.2 °F 29.73 in West 4.8 mph 8.1 mph 45 % 0.00 in
17:16 84.7 °F 61.0 °F 29.73 in WSW 4.9 mph 11.0 mph 45 % 0.00 in
17:21 84.4 °F 60.7 °F 29.73 in SW 5.8 mph 11.5 mph 45 % 0.00 in
17:26 84.0 °F 61.6 °F 29.74 in WSW 4.4 mph 7.0 mph 47 % 0.00 in
17:31 83.5 °F 61.1 °F 29.74 in WSW 1.1 mph 8.1 mph 47 % 0.00 in
17:36 83.2 °F 61.5 °F 29.74 in WNW 3.5 mph 4.6 mph 48 % 0.00 in
17:41 83.0 °F 61.3 °F 29.74 in West 0.7 mph 3.5 mph 48 % 0.00 in
17:46 82.9 °F 62.4 °F 29.74 in WNW 2.9 mph 5.0 mph 50 % 0.00 in
17:51 82.7 °F 61.0 °F 29.74 in WNW 1.5 mph 3.5 mph 48 % 0.00 in
17:56 82.7 °F 61.0 °F 29.74 in West 5.7 mph 9.2 mph 48 % 0.00 in
18:01 82.7 °F 59.2 °F 29.74 in WSW 4.7 mph 8.1 mph 45 % 0.00 in
18:06 82.6 °F 60.3 °F 29.74 in WNW 3.5 mph 4.6 mph 47 % 0.00 in
18:11 82.6 °F 59.7 °F 29.74 in WNW 2.6 mph 3.5 mph 46 % 0.00 in
18:16 82.6 °F 59.7 °F 29.75 in WNW 4.3 mph 6.9 mph 46 % 0.00 in
18:21 82.6 °F 61.5 °F 29.74 in West 1.1 mph 3.5 mph 49 % 0.00 in
18:26 82.5 °F 60.8 °F 29.75 in West 1.0 mph 2.3 mph 48 % 0.00 in
18:31 82.5 °F 60.8 °F 29.75 in WNW 2.3 mph 7.0 mph 48 % 0.00 in
18:32 82.5 °F 60.8 °F 29.75 in NW 3.1 mph 6.9 mph 48 % 0.00 in
18:38 82.5 °F 61.4 °F 29.75 in SW 3.0 mph 6.0 mph 49 % 0.00 in
18:42 82.4 °F 60.1 °F 29.75 in SW 0.2 mph 3.5 mph 47 % 0.00 in
18:48 82.3 °F 60.6 °F 29.75 in WNW 1.1 mph 4.6 mph 48 % 0.00 in
18:53 82.2 °F 60.0 °F 29.75 in SW 2.0 mph 2.0 mph 47 % 0.00 in
18:58 82.1 °F 59.9 °F 29.76 in WSW 3.8 mph 7.0 mph 47 % 0.00 in
19:03 82.0 °F 59.8 °F 29.76 in WSW 2.2 mph 4.6 mph 47 % 0.00 in
19:08 81.9 °F 60.3 °F 29.76 in SW 0.3 mph 2.0 mph 48 % 0.00 in
19:13 81.8 °F 60.2 °F 29.76 in WSW 1.8 mph 3.5 mph 48 % 0.00 in
19:18 81.8 °F 60.8 °F 29.76 in WNW 0.9 mph 2.3 mph 49 % 0.00 in
19:23 81.6 °F 61.7 °F 29.76 in West 1.5 mph 3.5 mph 51 % 0.00 in
19:28 81.5 °F 62.2 °F 29.76 in WNW 0.3 mph 2.3 mph 52 % 0.00 in
19:33 81.3 °F 61.4 °F 29.76 in WSW 1.9 mph 3.5 mph 51 % 0.00 in
19:38 81.2 °F 62.4 °F 29.76 in Calm   1.2 mph 53 % 0.00 in
19:43 81.0 °F 62.8 °F 29.77 in Calm     54 % 0.00 in
19:48 80.8 °F 63.1 °F 29.77 in WSW 0.2 mph 1.2 mph 55 % 0.00 in
19:53 80.5 °F 63.4 °F 29.77 in Calm   1.2 mph 56 % 0.00 in
19:58 80.2 °F 63.6 °F 29.77 in Calm     57 % 0.00 in
20:03 79.8 °F 64.2 °F 29.77 in Calm     59 % 0.00 in
20:08 79.4 °F 64.8 °F 29.78 in Calm     61 % 0.00 in
20:13 79.0 °F 64.9 °F 29.78 in Calm     62 % 0.00 in
20:18 78.6 °F 63.6 °F 29.78 in Calm     60 % 0.00 in
20:24 78.2 °F 64.1 °F 29.78 in Calm   1.2 mph 62 % 0.00 in
20:29 77.7 °F 64.5 °F 29.78 in Calm     64 % 0.00 in
20:34 77.3 °F 64.2 °F 29.78 in Calm     64 % 0.00 in
20:39 76.9 °F 64.2 °F 29.78 in Calm     65 % 0.00 in
20:44 76.6 °F 63.5 °F 29.78 in Calm     64 % 0.00 in
20:49 76.2 °F 63.1 °F 29.78 in Calm   1.2 mph 64 % 0.00 in
20:54 75.8 °F 62.8 °F 29.78 in Calm     64 % 0.00 in
20:59 75.5 °F 62.5 °F 29.78 in Calm     64 % 0.00 in
21:04 75.1 °F 62.1 °F 29.79 in Calm     64 % 0.00 in
21:09 74.8 °F 62.2 °F 29.79 in Calm     65 % 0.00 in
21:14 74.5 °F 62.4 °F 29.80 in Calm     66 % 0.00 in
21:19 74.2 °F 62.1 °F 29.80 in Calm     66 % 0.00 in
21:24 74.0 °F 61.9 °F 29.80 in Calm     66 % 0.00 in
21:29 73.8 °F 61.7 °F 29.80 in Calm     66 % 0.00 in
21:34 73.5 °F 61.9 °F 29.81 in Calm     67 % 0.00 in
21:39 73.3 °F 62.1 °F 29.81 in Calm     68 % 0.00 in
21:44 73.1 °F 61.9 °F 29.81 in Calm     68 % 0.00 in
21:49 72.9 °F 61.7 °F 29.81 in Calm     68 % 0.00 in
21:54 72.8 °F 61.6 °F 29.82 in NNE 0.1 mph 1.2 mph 68 % 0.00 in
21:59 72.6 °F 61.0 °F 29.82 in Calm     67 % 0.00 in
22:04 72.4 °F 60.4 °F 29.82 in Calm     66 % 0.00 in
22:09 72.3 °F 60.3 °F 29.82 in Calm     66 % 0.00 in
22:14 72.3 °F 60.7 °F 29.83 in Calm     67 % 0.00 in
22:19 72.2 °F 61.0 °F 29.83 in Calm   2.3 mph 68 % 0.00 in
22:24 72.1 °F 60.5 °F 29.83 in Calm     67 % 0.00 in
22:30 72.1 °F 61.0 °F 29.83 in Calm   1.2 mph 68 % 0.00 in
22:35 72.1 °F 61.0 °F 29.83 in Calm     68 % 0.00 in
22:40 72.1 °F 61.0 °F 29.83 in Calm   1.2 mph 68 % 0.00 in
22:45 72.2 °F 61.5 °F 29.83 in WSW 0.2 mph 1.2 mph 69 % 0.00 in
22:50 72.2 °F 61.5 °F 29.84 in WSW 0.1 mph 1.2 mph 69 % 0.00 in
22:55 72.3 °F 61.6 °F 29.83 in WSW 0.7 mph 2.3 mph 69 % 0.00 in
23:00 72.4 °F 61.7 °F 29.83 in WSW 1.4 mph 3.5 mph 69 % 0.00 in
23:05 72.4 °F 61.7 °F 29.83 in WSW 0.3 mph 1.2 mph 69 % 0.00 in
23:10 72.5 °F 61.7 °F 29.83 in Calm     69 % 0.00 in
23:15 72.6 °F 61.8 °F 29.83 in Calm   1.2 mph 69 % 0.00 in
23:20 72.6 °F 61.8 °F 29.83 in WSW 0.2 mph 2.3 mph 69 % 0.00 in
23:25 72.6 °F 61.8 °F 29.84 in WSW 0.6 mph 2.3 mph 69 % 0.00 in
23:30 72.6 °F 61.8 °F 29.84 in Calm   1.2 mph 69 % 0.00 in
23:36 72.7 °F 61.9 °F 29.84 in Calm   2.0 mph 69 % 0.00 in
23:41 72.7 °F 61.9 °F 29.83 in Calm   1.0 mph 69 % 0.00 in
23:42 72.7 °F 61.9 °F 29.83 in Calm     69 % 0.00 in
23:47 72.7 °F 62.3 °F 29.83 in WSW 1.3 mph 4.0 mph 70 % 0.00 in
23:52 72.7 °F 62.3 °F 29.84 in WSW 2.4 mph 5.0 mph 70 % 0.00 in
23:57 72.7 °F 62.3 °F 29.83 in WSW 2.1 mph 3.5 mph 70 % 0.00 in
Crab Meadow Weather
Compliments of Weather Underground - 3 mb

Script developed by  Jim McMurry - jmcmurry@mwt.net Adapted for the template by  Wim van der Kuil - Leuven-Template.eu

Weather Terms: Blowing Snow Advisory - Widespread blowing snow with winds 25 to 35 mph, occasionally reducing visibility to 1/4 mile or less.